createdAt,value
2022-09-20T00:00:06.909Z,43.70
2022-09-20T00:06:18.208Z,43.50
2022-09-20T00:12:31.259Z,43.40
2022-09-20T00:18:46.035Z,43.80
2022-09-20T00:25:00.270Z,44.00
2022-09-20T00:31:11.515Z,43.70
2022-09-20T00:37:21.319Z,43.40
2022-09-20T00:43:43.061Z,42.90
2022-09-20T00:49:55.394Z,43.30
2022-09-20T00:56:05.711Z,43.40
2022-09-20T01:02:21.013Z,43.30
2022-09-20T01:08:34.081Z,43.30
2022-09-20T01:14:45.210Z,43.20
2022-09-20T01:20:56.882Z,44.40
2022-09-20T01:27:14.166Z,44.80
2022-09-20T01:33:27.864Z,44.30
2022-09-20T01:39:42.648Z,44.70
2022-09-20T01:45:53.608Z,43.90
2022-09-20T01:52:42.719Z,44.70
2022-09-20T01:59:32.188Z,44.80
2022-09-20T02:06:15.798Z,44.70
2022-09-20T02:12:37.517Z,44.70
2022-09-20T02:18:59.411Z,45.40
2022-09-20T02:25:15.674Z,46.30
2022-09-20T02:31:34.488Z,45.60
2022-09-20T02:38:04.564Z,45.20
2022-09-20T02:44:17.316Z,45.30
2022-09-20T02:50:35.062Z,45.80
2022-09-20T02:56:51.726Z,45.80
2022-09-20T03:03:09.151Z,45.40
2022-09-20T03:09:25.666Z,45.30
2022-09-20T03:15:43.134Z,45.70
2022-09-20T03:22:00.762Z,45.60
2022-09-20T03:28:19.311Z,45.60
2022-09-20T03:34:35.793Z,45.50
2022-09-20T03:47:46.189Z,45.40
2022-09-20T03:54:32.050Z,45.70
2022-09-20T04:00:49.111Z,45.70
2022-09-20T04:07:10.737Z,45.70
2022-09-20T04:13:40.417Z,45.80
2022-09-20T04:19:56.992Z,45.90
2022-09-20T04:26:06.884Z,46.10
2022-09-20T04:32:23.205Z,46.20
2022-09-20T04:38:37.155Z,46.00
2022-09-20T04:45:13.176Z,45.80
2022-09-20T04:58:52.054Z,46.00
2022-09-20T05:05:42.683Z,46.30
2022-09-20T05:12:33.747Z,46.10
2022-09-20T05:19:12.292Z,46.10
2022-09-20T05:26:00.349Z,46.30
2022-09-20T05:32:13.694Z,46.20
2022-09-20T05:38:26.675Z,46.10
2022-09-20T05:44:46.989Z,46.10
2022-09-20T05:51:03.731Z,46.20
2022-09-20T05:57:24.572Z,46.80
2022-09-20T06:03:39.067Z,46.20
2022-09-20T06:09:54.794Z,46.30
2022-09-20T06:16:05.931Z,46.30
2022-09-20T06:22:22.072Z,46.30
2022-09-20T06:28:30.394Z,46.30
2022-09-20T06:34:39.610Z,46.30
2022-09-20T06:41:06.774Z,46.30
2022-09-20T06:47:20.131Z,46.30
2022-09-20T06:53:34.178Z,46.50
2022-09-20T06:59:45.655Z,46.50
2022-09-20T07:05:58.871Z,46.50
2022-09-20T07:12:10.071Z,46.50
2022-09-20T07:18:22.466Z,46.60
2022-09-20T07:24:32.882Z,46.70
2022-09-20T07:30:47.777Z,46.70
2022-09-20T07:37:03.103Z,46.70
2022-09-20T07:43:14.082Z,46.70
2022-09-20T07:49:27.021Z,46.70
2022-09-20T07:55:36.342Z,46.90
2022-09-20T08:01:50.538Z,46.90
2022-09-20T08:08:03.720Z,47.00
2022-09-20T08:14:13.151Z,47.00
2022-09-20T08:20:24.034Z,47.20
2022-09-20T08:26:36.392Z,47.20
2022-09-20T08:32:46.571Z,47.80
2022-09-20T08:45:09.379Z,47.20
2022-09-20T08:51:22.922Z,47.40
2022-09-20T08:57:35.452Z,47.50
2022-09-20T09:03:49.785Z,47.50
2022-09-20T09:10:01.007Z,47.40
2022-09-20T09:16:15.513Z,47.40
2022-09-20T09:22:25.316Z,47.40
2022-09-20T09:28:38.655Z,47.60
2022-09-20T09:34:49.676Z,47.60
2022-09-20T09:41:02.909Z,47.50
2022-09-20T09:47:25.398Z,47.70
2022-09-20T09:53:39.609Z,47.70
2022-09-20T09:59:56.736Z,47.70
2022-09-20T10:06:12.178Z,47.70
2022-09-20T10:12:30.041Z,47.70
2022-09-20T10:18:47.263Z,47.70
2022-09-20T10:25:01.910Z,47.80
2022-09-20T10:31:14.081Z,47.70
2022-09-20T10:37:28.065Z,47.70
2022-09-20T10:43:44.268Z,47.90
2022-09-20T10:50:00.128Z,47.90
2022-09-20T10:56:17.767Z,48.00
2022-09-20T11:09:14.176Z,47.90
2022-09-20T11:15:26.715Z,48.00
2022-09-20T11:21:40.787Z,48.30
2022-09-20T11:27:54.120Z,48.50
2022-09-20T11:34:07.809Z,48.30
2022-09-20T11:40:24.798Z,48.30
2022-09-20T11:46:37.498Z,48.40
2022-09-20T11:53:05.692Z,48.50
2022-09-20T11:59:21.288Z,48.50
2022-09-20T12:05:53.526Z,48.60
2022-09-20T12:12:03.649Z,48.60
2022-09-20T12:19:00.944Z,48.70
2022-09-20T12:25:42.447Z,48.90
2022-09-20T12:31:58.129Z,49.00
2022-09-20T12:38:25.440Z,49.10
2022-09-20T12:44:36.780Z,49.00
2022-09-20T12:51:06.024Z,49.40
2022-09-20T12:57:32.987Z,49.50
2022-09-20T13:03:43.134Z,49.20
2022-09-20T13:09:55.559Z,48.90
2022-09-20T13:16:06.840Z,48.90
2022-09-20T13:22:20.965Z,49.00
2022-09-20T13:28:38.906Z,48.70
2022-09-20T13:34:53.209Z,48.90
2022-09-20T13:41:11.610Z,48.80
2022-09-20T13:47:35.659Z,48.70
2022-09-20T13:53:47.555Z,48.80
2022-09-20T13:59:58.574Z,48.70
2022-09-20T14:06:09.011Z,48.70
2022-09-20T14:12:18.688Z,48.60
2022-09-20T14:18:32.956Z,48.30
2022-09-20T14:24:47.434Z,48.00
2022-09-20T14:30:59.100Z,48.00
2022-09-20T14:37:13.619Z,47.90
2022-09-20T14:43:33.718Z,47.90
2022-09-20T14:49:46.227Z,47.70
2022-09-20T14:56:05.105Z,47.50
2022-09-20T15:02:20.882Z,47.40
2022-09-20T15:08:32.865Z,46.00
2022-09-20T15:14:43.542Z,46.90
2022-09-20T15:20:54.174Z,46.90
2022-09-20T15:27:06.203Z,46.90
2022-09-20T15:33:16.975Z,46.90
2022-09-20T15:39:26.669Z,47.10
2022-09-20T15:45:40.152Z,47.00
2022-09-20T15:51:57.236Z,46.90
2022-09-20T15:58:06.970Z,46.70
2022-09-20T16:04:21.198Z,46.50
2022-09-20T16:10:33.291Z,46.50
2022-09-20T16:16:47.472Z,46.50
2022-09-20T16:22:57.992Z,46.80
2022-09-20T16:29:09.793Z,47.20
2022-09-20T16:35:23.791Z,47.60
2022-09-20T16:41:36.914Z,47.60
2022-09-20T16:47:49.979Z,47.50
2022-09-20T16:54:03.347Z,47.20
2022-09-20T17:00:18.579Z,47.10
2022-09-20T17:06:33.696Z,47.10
2022-09-20T17:12:45.994Z,46.80
2022-09-20T17:19:00.344Z,46.50
2022-09-20T17:25:12.169Z,46.30
2022-09-20T17:31:25.907Z,46.40
2022-09-20T17:37:38.654Z,46.50
2022-09-20T17:43:50.236Z,46.60
2022-09-20T17:50:02.141Z,46.60
2022-09-20T17:56:14.812Z,46.00
2022-09-20T18:02:25.996Z,46.00
2022-09-20T18:08:35.205Z,46.00
2022-09-20T18:14:49.708Z,45.90
2022-09-20T18:21:00.660Z,45.60
2022-09-20T18:27:11.853Z,45.60
2022-09-20T18:33:28.825Z,45.70
2022-09-20T18:39:40.680Z,46.20
2022-09-20T18:46:02.515Z,46.10
2022-09-20T18:52:14.746Z,45.80
2022-09-20T18:58:27.961Z,45.90
2022-09-20T19:05:13.972Z,46.00
2022-09-20T19:11:33.289Z,45.70
2022-09-20T19:17:53.381Z,45.20
2022-09-20T19:24:10.614Z,45.20
2022-09-20T19:30:28.108Z,45.40
2022-09-20T19:36:41.122Z,45.30
2022-09-20T19:42:58.020Z,45.00
2022-09-20T19:49:14.744Z,45.00
2022-09-20T19:55:30.101Z,44.90
2022-09-20T20:01:45.565Z,44.80
2022-09-20T20:07:59.171Z,44.90
2022-09-20T20:14:14.803Z,44.90
2022-09-20T20:20:32.950Z,44.90
2022-09-20T20:26:45.214Z,44.80
2022-09-20T20:32:59.015Z,45.10
2022-09-20T20:39:13.499Z,45.20
2022-09-20T20:45:23.805Z,45.40
2022-09-20T20:51:36.447Z,45.10
2022-09-20T20:57:50.776Z,45.50
2022-09-20T21:04:06.068Z,45.70
2022-09-20T21:10:19.576Z,45.90
2022-09-20T21:16:29.490Z,46.30
2022-09-20T21:22:38.997Z,46.40
2022-09-20T21:28:50.683Z,46.90
2022-09-20T21:35:01.716Z,47.00
2022-09-20T21:41:16.125Z,47.10
2022-09-20T21:47:29.580Z,45.60
2022-09-20T21:53:41.807Z,44.40
2022-09-20T21:59:53.538Z,43.60
2022-09-20T22:06:11.516Z,43.00
2022-09-20T22:12:24.935Z,42.60
2022-09-20T22:18:43.810Z,42.20
2022-09-20T22:24:58.166Z,42.60
2022-09-20T22:31:18.228Z,43.30
2022-09-20T22:37:27.752Z,44.00
2022-09-20T22:43:40.684Z,44.50
2022-09-20T22:49:50.853Z,44.80
2022-09-20T22:56:08.867Z,45.00
2022-09-20T23:02:19.602Z,45.00
2022-09-20T23:08:29.182Z,45.20
2022-09-20T23:14:40.312Z,45.30
2022-09-20T23:20:53.039Z,47.40
2022-09-20T23:27:06.174Z,47.10
2022-09-20T23:33:18.047Z,46.70
2022-09-20T23:39:30.880Z,47.50
2022-09-20T23:45:41.863Z,47.30
2022-09-20T23:51:53.059Z,48.80
2022-09-20T23:58:06.184Z,48.80
